sensor_id;sensor_type;location;lat;lon;timestamp;temperature;humidity
1411;DHT22;700;51.906;8.404;2024-02-26T00:00:41;7.10;99.90
1411;DHT22;700;51.906;8.404;2024-02-26T00:05:42;6.90;99.90
1411;DHT22;700;51.906;8.404;2024-02-26T00:10:45;6.90;99.90
1411;DHT22;700;51.906;8.404;2024-02-26T00:15:47;6.90;99.90
1411;DHT22;700;51.906;8.404;2024-02-26T00:20:48;7.10;99.90
1411;DHT22;700;51.906;8.404;2024-02-26T00:25:51;7.10;99.90
1411;DHT22;700;51.906;8.404;2024-02-26T00:30:54;7.20;99.90
1411;DHT22;700;51.906;8.404;2024-02-26T00:35:58;7.20;99.90
1411;DHT22;700;51.906;8.404;2024-02-26T00:41:01;7.10;99.90
1411;DHT22;700;51.906;8.404;2024-02-26T00:46:04;7.20;99.90
1411;DHT22;700;51.906;8.404;2024-02-26T00:51:07;7.20;99.90
1411;DHT22;700;51.906;8.404;2024-02-26T00:56:10;7.60;99.90
1411;DHT22;700;51.906;8.404;2024-02-26T01:01:11;7.50;99.90
1411;DHT22;700;51.906;8.404;2024-02-26T01:06:14;7.40;99.90
1411;DHT22;700;51.906;8.404;2024-02-26T01:11:14;7.40;99.90
1411;DHT22;700;51.906;8.404;2024-02-26T01:16:17;7.30;99.90
1411;DHT22;700;51.906;8.404;2024-02-26T01:21:18;7.30;99.90
1411;DHT22;700;51.906;8.404;2024-02-26T01:26:25;7.40;99.90
1411;DHT22;700;51.906;8.404;2024-02-26T01:31:26;7.20;99.90
1411;DHT22;700;51.906;8.404;2024-02-26T01:36:31;7.40;99.90
1411;DHT22;700;51.906;8.404;2024-02-26T01:41:32;7.50;99.90
1411;DHT22;700;51.906;8.404;2024-02-26T01:46:34;7.60;99.90
1411;DHT22;700;51.906;8.404;2024-02-26T01:51:36;7.70;99.90
1411;DHT22;700;51.906;8.404;2024-02-26T01:56:37;7.50;99.90
1411;DHT22;700;51.906;8.404;2024-02-26T02:01:44;7.60;99.90
1411;DHT22;700;51.906;8.404;2024-02-26T02:06:48;7.40;99.90
1411;DHT22;700;51.906;8.404;2024-02-26T02:11:51;7.60;99.90
1411;DHT22;700;51.906;8.404;2024-02-26T02:16:52;7.80;99.90
1411;DHT22;700;51.906;8.404;2024-02-26T02:21:58;7.90;99.90
1411;DHT22;700;51.906;8.404;2024-02-26T02:26:58;8.10;99.90
1411;DHT22;700;51.906;8.404;2024-02-26T02:32:03;8.20;99.90
1411;DHT22;700;51.906;8.404;2024-02-26T02:37:07;8.50;99.90
1411;DHT22;700;51.906;8.404;2024-02-26T02:42:08;8.60;99.90
1411;DHT22;700;51.906;8.404;2024-02-26T02:47:11;8.80;99.90
1411;DHT22;700;51.906;8.404;2024-02-26T02:52:14;8.90;99.90
1411;DHT22;700;51.906;8.404;2024-02-26T02:57:14;8.90;99.90
1411;DHT22;700;51.906;8.404;2024-02-26T03:02:19;9.10;99.90
1411;DHT22;700;51.906;8.404;2024-02-26T03:07:20;9.00;99.90
1411;DHT22;700;51.906;8.404;2024-02-26T03:12:21;8.80;99.90
1411;DHT22;700;51.906;8.404;2024-02-26T03:17:24;8.80;99.90
1411;DHT22;700;51.906;8.404;2024-02-26T03:22:25;9.10;99.90
1411;DHT22;700;51.906;8.404;2024-02-26T03:27:28;9.20;99.90
1411;DHT22;700;51.906;8.404;2024-02-26T03:32:33;9.40;99.90
1411;DHT22;700;51.906;8.404;2024-02-26T03:37:33;9.40;99.90
1411;DHT22;700;51.906;8.404;2024-02-26T03:42:38;9.40;99.90
1411;DHT22;700;51.906;8.404;2024-02-26T03:47:39;9.30;99.90
1411;DHT22;700;51.906;8.404;2024-02-26T03:52:40;9.30;99.90
1411;DHT22;700;51.906;8.404;2024-02-26T03:57:41;9.40;99.90
1411;DHT22;700;51.906;8.404;2024-02-26T04:02:41;9.40;99.90
1411;DHT22;700;51.906;8.404;2024-02-26T04:07:42;9.60;99.90
1411;DHT22;700;51.906;8.404;2024-02-26T04:12:42;9.50;99.90
1411;DHT22;700;51.906;8.404;2024-02-26T04:17:44;9.70;99.90
1411;DHT22;700;51.906;8.404;2024-02-26T04:22:45;9.90;99.90
1411;DHT22;700;51.906;8.404;2024-02-26T04:27:46;9.80;99.90
1411;DHT22;700;51.906;8.404;2024-02-26T04:32:46;9.60;99.90
1411;DHT22;700;51.906;8.404;2024-02-26T04:37:47;9.70;99.90
1411;DHT22;700;51.906;8.404;2024-02-26T04:42:49;9.80;99.90
1411;DHT22;700;51.906;8.404;2024-02-26T04:47:50;9.90;99.90
1411;DHT22;700;51.906;8.404;2024-02-26T04:52:53;10.00;99.90
1411;DHT22;700;51.906;8.404;2024-02-26T04:57:54;9.90;99.90
1411;DHT22;700;51.906;8.404;2024-02-26T05:02:54;9.90;99.90
1411;DHT22;700;51.906;8.404;2024-02-26T05:07:55;9.80;99.90
1411;DHT22;700;51.906;8.404;2024-02-26T05:12:56;9.90;99.90
1411;DHT22;700;51.906;8.404;2024-02-26T05:17:56;9.80;99.90
1411;DHT22;700;51.906;8.404;2024-02-26T05:22:59;9.70;99.90
1411;DHT22;700;51.906;8.404;2024-02-26T05:28:00;9.90;99.90
1411;DHT22;700;51.906;8.404;2024-02-26T05:33:00;10.00;99.90
1411;DHT22;700;51.906;8.404;2024-02-26T05:38:01;10.10;99.90
1411;DHT22;700;51.906;8.404;2024-02-26T05:43:02;10.20;99.90
1411;DHT22;700;51.906;8.404;2024-02-26T05:48:05;10.10;99.90
1411;DHT22;700;51.906;8.404;2024-02-26T05:53:08;10.10;99.90
1411;DHT22;700;51.906;8.404;2024-02-26T05:58:11;10.30;99.90
1411;DHT22;700;51.906;8.404;2024-02-26T06:03:12;10.30;99.90
1411;DHT22;700;51.906;8.404;2024-02-26T06:08:13;10.20;99.90
1411;DHT22;700;51.906;8.404;2024-02-26T06:13:14;10.30;99.90
1411;DHT22;700;51.906;8.404;2024-02-26T06:18:14;10.30;99.90
1411;DHT22;700;51.906;8.404;2024-02-26T06:23:18;10.20;99.90
1411;DHT22;700;51.906;8.404;2024-02-26T06:28:19;10.10;99.90
1411;DHT22;700;51.906;8.404;2024-02-26T06:33:19;10.00;99.90
1411;DHT22;700;51.906;8.404;2024-02-26T06:38:20;9.90;99.90
1411;DHT22;700;51.906;8.404;2024-02-26T06:43:21;10.10;99.90
1411;DHT22;700;51.906;8.404;2024-02-26T06:48:23;10.00;99.90
1411;DHT22;700;51.906;8.404;2024-02-26T06:53:26;10.20;99.90
1411;DHT22;700;51.906;8.404;2024-02-26T06:58:29;10.20;99.90
1411;DHT22;700;51.906;8.404;2024-02-26T07:03:32;10.10;99.90
1411;DHT22;700;51.906;8.404;2024-02-26T07:08:33;10.00;99.90
1411;DHT22;700;51.906;8.404;2024-02-26T07:13:36;9.90;99.90
1411;DHT22;700;51.906;8.404;2024-02-26T07:18:40;9.90;99.90
1411;DHT22;700;51.906;8.404;2024-02-26T07:23:41;10.20;99.90
1411;DHT22;700;51.906;8.404;2024-02-26T07:28:44;10.30;99.90
1411;DHT22;700;51.906;8.404;2024-02-26T07:33:45;10.20;99.90
1411;DHT22;700;51.906;8.404;2024-02-26T07:38:45;10.30;99.90
1411;DHT22;700;51.906;8.404;2024-02-26T07:43:48;10.30;99.90
1411;DHT22;700;51.906;8.404;2024-02-26T07:48:49;10.10;99.90
1411;DHT22;700;51.906;8.404;2024-02-26T07:53:50;10.10;99.90
1411;DHT22;700;51.906;8.404;2024-02-26T07:58:53;10.30;99.90
1411;DHT22;700;51.906;8.404;2024-02-26T08:03:54;10.30;99.90
1411;DHT22;700;51.906;8.404;2024-02-26T08:08:57;10.40;99.90
1411;DHT22;700;51.906;8.404;2024-02-26T08:13:57;10.60;99.90
1411;DHT22;700;51.906;8.404;2024-02-26T08:18:59;10.70;99.90
1411;DHT22;700;51.906;8.404;2024-02-26T08:24:02;10.80;99.90
1411;DHT22;700;51.906;8.404;2024-02-26T08:29:03;11.00;99.90
1411;DHT22;700;51.906;8.404;2024-02-26T08:34:04;10.80;99.90
1411;DHT22;700;51.906;8.404;2024-02-26T08:39:05;11.10;99.90
1411;DHT22;700;51.906;8.404;2024-02-26T08:44:05;11.20;99.90
1411;DHT22;700;51.906;8.404;2024-02-26T08:49:06;11.10;99.90
1411;DHT22;700;51.906;8.404;2024-02-26T08:54:11;10.90;99.90
1411;DHT22;700;51.906;8.404;2024-02-26T08:59:12;10.80;99.90
1411;DHT22;700;51.906;8.404;2024-02-26T09:04:13;11.00;99.90
1411;DHT22;700;51.906;8.404;2024-02-26T09:09:13;10.90;99.90
1411;DHT22;700;51.906;8.404;2024-02-26T09:14:14;10.90;99.90
1411;DHT22;700;51.906;8.404;2024-02-26T09:19:14;11.40;99.90
1411;DHT22;700;51.906;8.404;2024-02-26T09:24:15;11.80;99.90
1411;DHT22;700;51.906;8.404;2024-02-26T09:29:17;12.30;99.90
1411;DHT22;700;51.906;8.404;2024-02-26T09:34:18;12.80;99.90
1411;DHT22;700;51.906;8.404;2024-02-26T09:39:18;13.10;99.90
1411;DHT22;700;51.906;8.404;2024-02-26T09:44:22;13.60;99.90
1411;DHT22;700;51.906;8.404;2024-02-26T09:49:24;14.10;99.90
1411;DHT22;700;51.906;8.404;2024-02-26T09:54:25;14.20;99.90
1411;DHT22;700;51.906;8.404;2024-02-26T09:59:30;14.30;99.90
1411;DHT22;700;51.906;8.404;2024-02-26T10:04:36;14.40;99.90
1411;DHT22;700;51.906;8.404;2024-02-26T10:09:39;14.70;99.90
1411;DHT22;700;51.906;8.404;2024-02-26T10:14:40;14.80;99.90
1411;DHT22;700;51.906;8.404;2024-02-26T10:19:40;14.70;99.90
1411;DHT22;700;51.906;8.404;2024-02-26T10:24:47;14.50;99.90
1411;DHT22;700;51.906;8.404;2024-02-26T10:29:47;14.70;99.90
1411;DHT22;700;51.906;8.404;2024-02-26T10:34:55;14.60;99.90
1411;DHT22;700;51.906;8.404;2024-02-26T10:39:56;14.90;99.90
1411;DHT22;700;51.906;8.404;2024-02-26T10:44:58;15.30;99.90
1411;DHT22;700;51.906;8.404;2024-02-26T10:49:59;15.20;99.90
1411;DHT22;700;51.906;8.404;2024-02-26T10:55:05;15.00;99.90
1411;DHT22;700;51.906;8.404;2024-02-26T11:00:15;15.10;99.90
1411;DHT22;700;51.906;8.404;2024-02-26T11:05:17;15.40;99.90
1411;DHT22;700;51.906;8.404;2024-02-26T11:10:20;15.40;99.90
1411;DHT22;700;51.906;8.404;2024-02-26T11:15:21;15.30;99.90
1411;DHT22;700;51.906;8.404;2024-02-26T11:20:25;15.20;99.90
1411;DHT22;700;51.906;8.404;2024-02-26T11:25:30;15.10;99.90
1411;DHT22;700;51.906;8.404;2024-02-26T11:30:38;15.20;99.90
1411;DHT22;700;51.906;8.404;2024-02-26T11:35:42;15.00;99.90
1411;DHT22;700;51.906;8.404;2024-02-26T11:40:44;15.20;99.90
1411;DHT22;700;51.906;8.404;2024-02-26T11:45:49;15.20;99.90
1411;DHT22;700;51.906;8.404;2024-02-26T11:50:55;15.20;99.90
1411;DHT22;700;51.906;8.404;2024-02-26T12:01:39;14.80;99.90
1411;DHT22;700;51.906;8.404;2024-02-26T12:06:55;15.00;99.90
1411;DHT22;700;51.906;8.404;2024-02-26T12:12:05;14.70;99.90
1411;DHT22;700;51.906;8.404;2024-02-26T12:17:07;14.80;99.90
1411;DHT22;700;51.906;8.404;2024-02-26T12:22:19;14.80;99.90
1411;DHT22;700;51.906;8.404;2024-02-26T12:27:22;14.90;99.90
1411;DHT22;700;51.906;8.404;2024-02-26T12:32:23;14.70;99.90
1411;DHT22;700;51.906;8.404;2024-02-26T12:37:27;14.90;99.90
1411;DHT22;700;51.906;8.404;2024-02-26T12:42:32;14.80;99.90
1411;DHT22;700;51.906;8.404;2024-02-26T12:47:37;14.40;99.90
1411;DHT22;700;51.906;8.404;2024-02-26T12:52:43;14.30;99.90
1411;DHT22;700;51.906;8.404;2024-02-26T12:57:52;14.10;99.90
1411;DHT22;700;51.906;8.404;2024-02-26T13:02:54;14.00;99.90
1411;DHT22;700;51.906;8.404;2024-02-26T13:07:56;13.50;99.90
1411;DHT22;700;51.906;8.404;2024-02-26T13:12:57;13.70;99.90
1411;DHT22;700;51.906;8.404;2024-02-26T13:17:57;13.80;99.90
1411;DHT22;700;51.906;8.404;2024-02-26T13:23:08;13.80;99.90
1411;DHT22;700;51.906;8.404;2024-02-26T13:28:20;13.70;99.90
1411;DHT22;700;51.906;8.404;2024-02-26T13:33:22;13.60;99.90
1411;DHT22;700;51.906;8.404;2024-02-26T13:38:26;13.30;99.90
1411;DHT22;700;51.906;8.404;2024-02-26T13:43:31;12.90;99.90
1411;DHT22;700;51.906;8.404;2024-02-26T13:48:34;13.10;99.90
1411;DHT22;700;51.906;8.404;2024-02-26T13:53:35;13.20;99.90
1411;DHT22;700;51.906;8.404;2024-02-26T13:58:38;13.20;99.90
1411;DHT22;700;51.906;8.404;2024-02-26T14:03:41;13.30;99.90
1411;DHT22;700;51.906;8.404;2024-02-26T14:08:44;13.20;99.90
1411;DHT22;700;51.906;8.404;2024-02-26T14:13:47;12.80;99.90
1411;DHT22;700;51.906;8.404;2024-02-26T14:18:50;12.70;99.90
1411;DHT22;700;51.906;8.404;2024-02-26T14:23:52;12.60;99.90
1411;DHT22;700;51.906;8.404;2024-02-26T14:28:53;12.70;99.90
1411;DHT22;700;51.906;8.404;2024-02-26T14:33:56;12.70;99.90
1411;DHT22;700;51.906;8.404;2024-02-26T14:38:59;12.80;99.90
1411;DHT22;700;51.906;8.404;2024-02-26T14:44:04;12.90;99.90
1411;DHT22;700;51.906;8.404;2024-02-26T14:49:09;12.70;99.90
1411;DHT22;700;51.906;8.404;2024-02-26T14:54:12;12.70;99.90
1411;DHT22;700;51.906;8.404;2024-02-26T14:59:17;12.40;99.90
1411;DHT22;700;51.906;8.404;2024-02-26T15:04:18;12.50;99.90
1411;DHT22;700;51.906;8.404;2024-02-26T15:09:18;12.70;99.90
1411;DHT22;700;51.906;8.404;2024-02-26T15:14:21;12.40;99.90
1411;DHT22;700;51.906;8.404;2024-02-26T15:19:24;12.40;99.90
1411;DHT22;700;51.906;8.404;2024-02-26T15:24:25;12.50;99.90
1411;DHT22;700;51.906;8.404;2024-02-26T15:29:25;12.30;99.90
1411;DHT22;700;51.906;8.404;2024-02-26T15:34:29;12.30;99.90
1411;DHT22;700;51.906;8.404;2024-02-26T15:39:32;12.40;99.90
1411;DHT22;700;51.906;8.404;2024-02-26T15:44:33;12.40;99.90
1411;DHT22;700;51.906;8.404;2024-02-26T15:49:36;12.20;99.90
1411;DHT22;700;51.906;8.404;2024-02-26T15:54:40;11.60;99.90
1411;DHT22;700;51.906;8.404;2024-02-26T15:59:43;11.60;99.90
1411;DHT22;700;51.906;8.404;2024-02-26T16:04:46;11.60;99.90
1411;DHT22;700;51.906;8.404;2024-02-26T16:09:52;11.60;99.90
1411;DHT22;700;51.906;8.404;2024-02-26T16:14:52;11.50;99.90
1411;DHT22;700;51.906;8.404;2024-02-26T16:19:53;11.50;99.90
1411;DHT22;700;51.906;8.404;2024-02-26T16:24:56;11.60;99.90
1411;DHT22;700;51.906;8.404;2024-02-26T16:29:59;11.60;99.90
1411;DHT22;700;51.906;8.404;2024-02-26T16:35:02;11.70;99.90
1411;DHT22;700;51.906;8.404;2024-02-26T16:40:04;11.50;99.90
1411;DHT22;700;51.906;8.404;2024-02-26T16:45:05;11.60;99.90
1411;DHT22;700;51.906;8.404;2024-02-26T16:50:09;11.70;99.90
1411;DHT22;700;51.906;8.404;2024-02-26T16:55:12;11.70;99.90
1411;DHT22;700;51.906;8.404;2024-02-26T17:00:16;11.60;99.90
1411;DHT22;700;51.906;8.404;2024-02-26T17:05:17;11.30;99.90
1411;DHT22;700;51.906;8.404;2024-02-26T17:10:18;11.50;99.90
1411;DHT22;700;51.906;8.404;2024-02-26T17:15:20;11.40;99.90
1411;DHT22;700;51.906;8.404;2024-02-26T17:20:21;11.40;99.90
1411;DHT22;700;51.906;8.404;2024-02-26T17:25:22;11.40;99.90
1411;DHT22;700;51.906;8.404;2024-02-26T17:30:25;11.50;99.90
1411;DHT22;700;51.906;8.404;2024-02-26T17:35:25;11.60;99.90
1411;DHT22;700;51.906;8.404;2024-02-26T17:40:28;11.60;99.90
1411;DHT22;700;51.906;8.404;2024-02-26T17:45:30;11.20;99.90
1411;DHT22;700;51.906;8.404;2024-02-26T17:50:31;11.50;99.90
1411;DHT22;700;51.906;8.404;2024-02-26T17:55:32;11.40;99.90
1411;DHT22;700;51.906;8.404;2024-02-26T18:00:35;11.50;99.90
1411;DHT22;700;51.906;8.404;2024-02-26T18:05:38;11.30;99.90
1411;DHT22;700;51.906;8.404;2024-02-26T18:10:39;11.50;99.90
1411;DHT22;700;51.906;8.404;2024-02-26T18:15:40;11.60;99.90
1411;DHT22;700;51.906;8.404;2024-02-26T18:20:42;11.50;99.90
1411;DHT22;700;51.906;8.404;2024-02-26T18:25:45;11.70;99.90
1411;DHT22;700;51.906;8.404;2024-02-26T18:30:48;11.60;99.90
1411;DHT22;700;51.906;8.404;2024-02-26T18:35:49;11.60;99.90
1411;DHT22;700;51.906;8.404;2024-02-26T18:40:52;11.60;99.90
1411;DHT22;700;51.906;8.404;2024-02-26T18:45:52;11.40;99.90
1411;DHT22;700;51.906;8.404;2024-02-26T18:50:57;11.40;99.90
1411;DHT22;700;51.906;8.404;2024-02-26T18:55:58;11.50;99.90
1411;DHT22;700;51.906;8.404;2024-02-26T19:01:01;11.30;99.90
1411;DHT22;700;51.906;8.404;2024-02-26T19:06:01;11.50;99.90
1411;DHT22;700;51.906;8.404;2024-02-26T19:11:09;11.40;99.90
1411;DHT22;700;51.906;8.404;2024-02-26T19:16:10;11.40;99.90
1411;DHT22;700;51.906;8.404;2024-02-26T19:21:11;11.50;99.90
1411;DHT22;700;51.906;8.404;2024-02-26T19:26:16;11.50;99.90
1411;DHT22;700;51.906;8.404;2024-02-26T19:31:16;11.30;99.90
1411;DHT22;700;51.906;8.404;2024-02-26T19:36:17;11.30;99.90
1411;DHT22;700;51.906;8.404;2024-02-26T19:41:19;11.40;99.90
1411;DHT22;700;51.906;8.404;2024-02-26T19:46:22;11.50;99.90
1411;DHT22;700;51.906;8.404;2024-02-26T19:51:25;11.50;99.90
1411;DHT22;700;51.906;8.404;2024-02-26T19:56:28;11.50;99.90
1411;DHT22;700;51.906;8.404;2024-02-26T20:01:28;11.40;99.90
1411;DHT22;700;51.906;8.404;2024-02-26T20:06:29;11.50;99.90
1411;DHT22;700;51.906;8.404;2024-02-26T20:11:33;11.10;99.90
1411;DHT22;700;51.906;8.404;2024-02-26T20:16:36;11.20;99.90
1411;DHT22;700;51.906;8.404;2024-02-26T20:21:38;11.30;99.90
1411;DHT22;700;51.906;8.404;2024-02-26T20:26:40;11.20;99.90
1411;DHT22;700;51.906;8.404;2024-02-26T20:31:43;11.30;99.90
1411;DHT22;700;51.906;8.404;2024-02-26T20:36:44;11.30;99.90
1411;DHT22;700;51.906;8.404;2024-02-26T20:41:45;11.10;99.90
1411;DHT22;700;51.906;8.404;2024-02-26T20:46:45;11.30;99.90
1411;DHT22;700;51.906;8.404;2024-02-26T20:51:46;11.30;99.90
1411;DHT22;700;51.906;8.404;2024-02-26T20:56:47;11.00;99.90
1411;DHT22;700;51.906;8.404;2024-02-26T21:01:49;10.80;99.90
1411;DHT22;700;51.906;8.404;2024-02-26T21:06:50;10.90;99.90
1411;DHT22;700;51.906;8.404;2024-02-26T21:11:50;11.00;99.90
1411;DHT22;700;51.906;8.404;2024-02-26T21:16:51;11.00;99.90
1411;DHT22;700;51.906;8.404;2024-02-26T21:21:52;10.90;99.90
1411;DHT22;700;51.906;8.404;2024-02-26T21:26:52;10.70;99.90
1411;DHT22;700;51.906;8.404;2024-02-26T21:31:53;10.70;99.90
1411;DHT22;700;51.906;8.404;2024-02-26T21:36:54;10.60;99.90
1411;DHT22;700;51.906;8.404;2024-02-26T21:41:57;10.50;99.90
1411;DHT22;700;51.906;8.404;2024-02-26T21:46:57;10.30;99.90
1411;DHT22;700;51.906;8.404;2024-02-26T21:51:58;10.20;99.90
1411;DHT22;700;51.906;8.404;2024-02-26T21:56:59;10.20;99.90
1411;DHT22;700;51.906;8.404;2024-02-26T22:02:00;10.40;99.90
1411;DHT22;700;51.906;8.404;2024-02-26T22:07:00;10.20;99.90
1411;DHT22;700;51.906;8.404;2024-02-26T22:12:01;10.10;99.90
1411;DHT22;700;51.906;8.404;2024-02-26T22:17:02;10.10;99.90
1411;DHT22;700;51.906;8.404;2024-02-26T22:22:03;10.10;99.90
1411;DHT22;700;51.906;8.404;2024-02-26T22:27:04;10.00;99.90
1411;DHT22;700;51.906;8.404;2024-02-26T22:32:05;10.00;99.90
1411;DHT22;700;51.906;8.404;2024-02-26T22:37:07;9.90;99.90
1411;DHT22;700;51.906;8.404;2024-02-26T22:42:10;9.50;99.90
1411;DHT22;700;51.906;8.404;2024-02-26T22:47:11;9.60;99.90
1411;DHT22;700;51.906;8.404;2024-02-26T22:52:12;9.70;99.90
1411;DHT22;700;51.906;8.404;2024-02-26T22:57:13;9.70;99.90
1411;DHT22;700;51.906;8.404;2024-02-26T23:02:18;9.70;99.90
1411;DHT22;700;51.906;8.404;2024-02-26T23:07:18;9.70;99.90
1411;DHT22;700;51.906;8.404;2024-02-26T23:12:19;10.00;99.90
1411;DHT22;700;51.906;8.404;2024-02-26T23:17:21;10.00;99.90
1411;DHT22;700;51.906;8.404;2024-02-26T23:22:21;10.10;99.90
1411;DHT22;700;51.906;8.404;2024-02-26T23:27:22;9.80;99.90
1411;DHT22;700;51.906;8.404;2024-02-26T23:32:27;9.50;99.90
1411;DHT22;700;51.906;8.404;2024-02-26T23:37:27;9.60;99.90
1411;DHT22;700;51.906;8.404;2024-02-26T23:42:28;9.80;99.90
1411;DHT22;700;51.906;8.404;2024-02-26T23:47:29;9.90;99.90
1411;DHT22;700;51.906;8.404;2024-02-26T23:52:32;9.90;99.90
1411;DHT22;700;51.906;8.404;2024-02-26T23:57:32;9.70;99.90
